createdAt,value
2019-02-08T00:00:47.234Z,1.20
2019-02-08T00:03:33.329Z,1.20
2019-02-08T00:06:17.337Z,1.20
2019-02-08T00:09:16.291Z,1.30
2019-02-08T00:11:55.066Z,1.30
2019-02-08T00:14:32.974Z,1.30
2019-02-08T00:20:12.955Z,1.40
2019-02-08T00:25:44.551Z,1.50
2019-02-08T00:28:20.502Z,1.50
2019-02-08T00:30:55.343Z,1.50
2019-02-08T00:36:36.328Z,1.50
2019-02-08T00:45:14.120Z,1.40
2019-02-08T00:48:09.649Z,1.30
2019-02-08T00:53:40.435Z,1.40
2019-02-08T00:56:22.704Z,1.50
2019-02-08T01:01:58.423Z,1.60
2019-02-08T01:07:28.805Z,1.60
2019-02-08T01:13:07.266Z,1.60
2019-02-08T01:24:59.709Z,1.60
2019-02-08T01:30:31.763Z,1.70
2019-02-08T01:33:30.580Z,1.70
2019-02-08T01:36:04.719Z,1.70
2019-02-08T01:38:40.030Z,1.70
2019-02-08T01:41:21.986Z,1.70
2019-02-08T01:46:55.190Z,1.70
2019-02-08T01:52:31.973Z,1.80
2019-02-08T01:55:07.059Z,1.80
2019-02-08T01:57:51.742Z,1.80
2019-02-08T02:06:45.446Z,1.90
2019-02-08T02:14:52.495Z,2.00
2019-02-08T02:17:29.153Z,2.00
2019-02-08T02:20:07.005Z,2.10
2019-02-08T02:22:46.217Z,2.10
2019-02-08T02:25:21.303Z,2.10
2019-02-08T02:28:11.093Z,2.20
2019-02-08T02:31:05.583Z,2.30
2019-02-08T02:36:39.660Z,2.30
2019-02-08T02:53:40.713Z,2.50
2019-02-08T02:56:24.905Z,2.50
2019-02-08T02:58:57.510Z,2.50
2019-02-08T03:04:41.557Z,2.50
2019-02-08T03:07:21.688Z,2.50
2019-02-08T03:10:01.588Z,2.50
2019-02-08T03:15:46.665Z,2.50
2019-02-08T03:24:13.086Z,2.50
2019-02-08T03:26:42.899Z,2.50
2019-02-08T03:32:18.289Z,2.50
2019-02-08T03:38:00.471Z,2.60
2019-02-08T03:43:47.792Z,2.60
2019-02-08T03:49:34.345Z,2.60
2019-02-08T05:09:02.036Z,2.50
2019-02-08T05:57:04.458Z,2.90
2019-02-08T05:59:39.140Z,2.90
2019-02-08T06:02:21.073Z,2.90
2019-02-08T06:08:45.957Z,3.00
2019-02-08T06:10:22.313Z,3.00
2019-02-08T06:12:53.997Z,3.00
2019-02-08T06:15:29.521Z,3.00
2019-02-08T06:18:06.602Z,3.00
2019-02-08T06:20:37.930Z,3.00
2019-02-08T06:23:14.190Z,3.10
2019-02-08T06:25:49.662Z,3.00
2019-02-08T06:28:30.778Z,3.10
2019-02-08T06:31:03.868Z,3.00
2019-02-08T06:33:36.762Z,3.00
2019-02-08T06:36:26.634Z,3.10
2019-02-08T06:38:59.443Z,3.10
2019-02-08T06:44:20.289Z,3.10
2019-02-08T06:46:58.094Z,3.10
2019-02-08T06:49:23.050Z,3.10
2019-02-08T06:51:53.276Z,3.10
2019-02-08T06:54:27.695Z,3.10
2019-02-08T06:57:02.355Z,3.20
2019-02-08T06:59:36.110Z,3.20
2019-02-08T07:02:09.125Z,3.20
2019-02-08T07:04:54.171Z,3.30
2019-02-08T07:07:26.653Z,3.30
2019-02-08T07:10:00.186Z,3.40
2019-02-08T07:12:33.482Z,3.40
2019-02-08T07:15:22.332Z,3.40
2019-02-08T07:21:05.811Z,3.50
2019-02-08T07:26:49.677Z,3.60
2019-02-08T07:29:26.970Z,3.70
2019-02-08T07:32:32.497Z,3.80
2019-02-08T07:47:23.753Z,3.80
2019-02-08T07:50:10.040Z,3.80
2019-02-08T07:53:13.846Z,3.80
2019-02-08T07:59:54.972Z,3.80
2019-02-08T08:02:03.245Z,3.90
2019-02-08T08:04:43.622Z,4.00
2019-02-08T08:07:28.950Z,4.00
2019-02-08T08:15:37.965Z,4.60
2019-02-08T08:18:16.866Z,4.90
2019-02-08T08:21:01.730Z,5.30
2019-02-08T08:23:37.919Z,5.60
2019-02-08T08:26:24.675Z,6.00
2019-02-08T08:31:49.602Z,6.80
2019-02-08T08:37:19.073Z,6.80
2019-02-08T08:42:46.260Z,8.00
2019-02-08T08:45:31.268Z,8.10
2019-02-08T08:48:12.682Z,7.60
2019-02-08T08:54:02.141Z,6.60
2019-02-08T08:56:42.907Z,6.40
2019-02-08T08:59:56.769Z,6.10
2019-02-08T09:02:49.473Z,5.80
2019-02-08T09:06:11.824Z,5.80
2019-02-08T09:08:55.295Z,6.00
2019-02-08T09:11:30.404Z,5.90
2019-02-08T09:14:22.568Z,5.70
2019-02-08T09:17:20.190Z,5.70
2019-02-08T09:20:03.850Z,5.90
2019-02-08T09:22:59.848Z,6.10
2019-02-08T09:25:39.098Z,6.30
2019-02-08T09:28:42.107Z,6.70
2019-02-08T09:31:25.475Z,6.90
2019-02-08T09:34:20.106Z,6.90
2019-02-08T09:37:04.166Z,7.10
2019-02-08T09:39:48.448Z,7.10
2019-02-08T09:42:32.974Z,7.50
2019-02-08T09:48:31.388Z,7.80
2019-02-08T09:57:37.126Z,8.60
2019-02-08T10:00:51.462Z,8.40
2019-02-08T10:03:47.017Z,8.30
2019-02-08T10:06:48.506Z,8.30
2019-02-08T10:10:02.477Z,8.40
2019-02-08T10:13:07.818Z,8.10
2019-02-08T10:18:48.250Z,8.10
2019-02-08T10:21:47.058Z,8.80
2019-02-08T10:27:38.905Z,9.70
2019-02-08T10:30:42.381Z,9.70
2019-02-08T10:33:39.611Z,9.50
2019-02-08T10:40:05.265Z,9.90
2019-02-08T10:46:06.100Z,10.10
2019-02-08T10:49:17.500Z,9.60
2019-02-08T10:52:18.624Z,9.30
2019-02-08T10:55:25.312Z,9.40
2019-02-08T10:58:28.908Z,9.60
2019-02-08T11:01:25.633Z,9.70
2019-02-08T11:04:17.776Z,9.40
2019-02-08T11:07:27.866Z,9.50
2019-02-08T11:10:32.226Z,9.70
2019-02-08T11:13:39.368Z,10.10
2019-02-08T11:16:30.057Z,10.00
2019-02-08T11:21:51.788Z,9.80
2019-02-08T11:24:20.886Z,10.10
2019-02-08T11:26:52.897Z,10.00
2019-02-08T11:29:28.064Z,9.80
2019-02-08T11:32:03.071Z,9.70
2019-02-08T11:34:35.820Z,10.00
2019-02-08T11:37:07.975Z,10.30
2019-02-08T11:39:40.164Z,10.50
2019-02-08T11:42:14.374Z,10.60
2019-02-08T11:44:45.081Z,10.30
2019-02-08T11:47:19.415Z,10.10
2019-02-08T11:50:06.466Z,9.90
2019-02-08T11:52:31.698Z,9.70
2019-02-08T11:55:12.715Z,9.50
2019-02-08T11:57:41.785Z,9.70
2019-02-08T12:00:18.059Z,9.90
2019-02-08T12:02:51.618Z,10.00
2019-02-08T12:05:25.725Z,9.80
2019-02-08T12:07:54.953Z,9.40
2019-02-08T12:10:29.240Z,9.00
2019-02-08T12:13:04.682Z,8.90
2019-02-08T12:15:39.110Z,8.90
2019-02-08T12:18:13.211Z,8.80
2019-02-08T12:20:48.329Z,8.70
2019-02-08T12:23:21.808Z,8.70
2019-02-08T12:25:52.105Z,8.60
2019-02-08T12:28:25.811Z,8.70
2019-02-08T12:31:04.208Z,8.90
2019-02-08T12:33:46.806Z,8.80
2019-02-08T12:36:12.517Z,8.70
2019-02-08T12:38:43.644Z,8.80
2019-02-08T12:41:16.510Z,8.80
2019-02-08T12:43:49.988Z,8.80
2019-02-08T12:48:57.917Z,8.90
2019-02-08T12:54:02.982Z,9.10
2019-02-08T12:56:33.617Z,9.30
2019-02-08T12:59:02.638Z,9.10
2019-02-08T13:01:40.328Z,8.90
2019-02-08T13:04:13.626Z,8.80
2019-02-08T13:06:50.966Z,8.60
2019-02-08T13:09:21.563Z,8.50
2019-02-08T13:11:55.685Z,8.30
2019-02-08T13:14:27.161Z,8.40
2019-02-08T13:16:58.126Z,8.30
2019-02-08T13:19:30.340Z,8.20
2019-02-08T13:22:00.314Z,8.20
2019-02-08T13:24:31.561Z,8.00
2019-02-08T13:29:57.868Z,7.80
2019-02-08T13:32:35.306Z,7.70
2019-02-08T13:35:06.751Z,7.70
2019-02-08T13:43:01.678Z,7.40
2019-02-08T13:45:36.213Z,7.40
2019-02-08T13:48:11.631Z,7.40
2019-02-08T13:50:46.094Z,7.40
2019-02-08T13:56:21.457Z,7.30
2019-02-08T13:58:54.556Z,7.20
2019-02-08T14:01:30.202Z,7.30
2019-02-08T14:07:02.828Z,7.10
2019-02-08T14:09:37.177Z,7.00
2019-02-08T14:12:10.618Z,6.90
2019-02-08T14:14:44.790Z,6.90
2019-02-08T14:17:19.596Z,6.80
2019-02-08T14:19:50.728Z,6.70
2019-02-08T14:22:24.703Z,6.80
2019-02-08T14:24:58.612Z,6.80
2019-02-08T14:30:47.993Z,6.80
2019-02-08T14:33:19.252Z,6.70
2019-02-08T14:35:55.958Z,6.70
2019-02-08T14:38:33.472Z,6.60
2019-02-08T14:41:06.105Z,6.60
2019-02-08T14:43:40.250Z,6.60
2019-02-08T14:46:12.860Z,6.60
2019-02-08T14:49:01.860Z,6.60
2019-02-08T14:54:10.335Z,6.50
2019-02-08T14:56:47.397Z,6.40
2019-02-08T14:59:24.471Z,6.40
2019-02-08T15:02:05.036Z,6.30
2019-02-08T15:04:43.772Z,6.30
2019-02-08T15:07:23.306Z,6.20
2019-02-08T15:09:58.550Z,6.10
2019-02-08T15:12:33.943Z,6.10
2019-02-08T15:15:05.850Z,6.10
2019-02-08T15:17:39.744Z,6.10
2019-02-08T15:20:33.991Z,6.00
2019-02-08T15:23:10.800Z,5.90
2019-02-08T15:25:42.813Z,5.80
2019-02-08T15:28:14.077Z,5.80
2019-02-08T15:30:46.405Z,5.70
2019-02-08T15:33:32.456Z,5.70
2019-02-08T15:41:42.076Z,5.50
2019-02-08T15:44:16.325Z,5.40
2019-02-08T15:46:54.114Z,5.40
2019-02-08T15:49:29.035Z,5.40
2019-02-08T15:52:03.221Z,5.30
2019-02-08T15:54:33.387Z,5.20
2019-02-08T15:57:07.121Z,5.20
2019-02-08T15:59:41.783Z,5.10
2019-02-08T16:02:14.809Z,5.10
2019-02-08T16:04:47.516Z,5.00
2019-02-08T16:07:19.162Z,5.00
2019-02-08T16:09:53.840Z,5.00
2019-02-08T16:15:23.743Z,4.90
2019-02-08T16:18:04.363Z,4.80
2019-02-08T16:20:37.553Z,4.80
2019-02-08T16:23:13.653Z,4.70
2019-02-08T16:28:47.201Z,4.60
2019-02-08T16:34:07.130Z,4.60
2019-02-08T16:36:40.414Z,4.60
2019-02-08T16:39:13.603Z,4.60
2019-02-08T16:41:45.805Z,4.50
2019-02-08T16:44:19.916Z,4.50
2019-02-08T16:46:54.367Z,4.40
2019-02-08T16:49:24.883Z,4.40
2019-02-08T16:52:01.445Z,4.30
2019-02-08T16:54:33.198Z,4.30
2019-02-08T16:57:08.241Z,4.30
2019-02-08T16:59:46.081Z,4.20
2019-02-08T17:02:15.447Z,4.20
2019-02-08T17:04:46.173Z,4.20
2019-02-08T17:07:17.472Z,4.10
2019-02-08T17:09:47.959Z,4.10
2019-02-08T17:15:13.043Z,4.00
2019-02-08T17:17:48.314Z,4.00
2019-02-08T17:20:31.808Z,3.90
2019-02-08T17:23:05.787Z,3.90
2019-02-08T17:25:41.699Z,3.80
2019-02-08T17:28:19.701Z,3.80
2019-02-08T17:31:13.596Z,3.80
2019-02-08T17:33:40.892Z,3.70
2019-02-08T17:36:19.499Z,3.70
2019-02-08T17:38:51.558Z,3.70
2019-02-08T17:41:31.240Z,3.70
2019-02-08T17:44:08.403Z,3.70
2019-02-08T17:46:41.526Z,3.70
2019-02-08T17:49:12.497Z,3.70
2019-02-08T17:54:55.589Z,3.80
2019-02-08T17:57:23.216Z,3.80
2019-02-08T17:59:59.010Z,3.70
2019-02-08T18:05:38.385Z,3.60
2019-02-08T18:11:02.725Z,3.50
2019-02-08T18:13:35.735Z,3.50
2019-02-08T18:16:10.423Z,3.50
2019-02-08T18:19:01.858Z,3.40
2019-02-08T18:21:51.128Z,3.40
2019-02-08T18:24:21.922Z,3.30
2019-02-08T18:27:16.221Z,3.20
2019-02-08T18:32:49.775Z,3.10
2019-02-08T18:41:09.106Z,3.00
2019-02-08T18:43:47.183Z,3.00
2019-02-08T18:46:25.460Z,3.00
2019-02-08T18:48:55.608Z,3.00
2019-02-08T18:51:27.925Z,2.90
2019-02-08T18:59:34.531Z,3.00
2019-02-08T19:02:11.686Z,2.90
2019-02-08T19:04:49.859Z,3.00
2019-02-08T19:07:20.957Z,3.00
2019-02-08T19:09:56.000Z,2.90
2019-02-08T19:12:41.070Z,2.90
2019-02-08T19:15:19.005Z,2.90
2019-02-08T19:17:57.262Z,2.90
2019-02-08T19:20:28.751Z,2.80
2019-02-08T19:23:02.341Z,2.80
2019-02-08T19:25:56.241Z,2.70
2019-02-08T19:31:27.204Z,2.70
2019-02-08T19:34:04.977Z,2.60
2019-02-08T19:39:27.468Z,2.40
2019-02-08T19:42:00.942Z,2.30
2019-02-08T19:44:41.757Z,2.30
2019-02-08T19:47:31.947Z,2.20
2019-02-08T19:50:10.722Z,2.20
2019-02-08T19:55:38.965Z,2.10
2019-02-08T19:58:24.371Z,1.90
2019-02-08T20:01:05.935Z,1.70
2019-02-08T20:03:44.025Z,1.60
2019-02-08T20:06:21.999Z,1.30
2019-02-08T20:08:56.675Z,1.10
2019-02-08T20:11:29.564Z,0.80
2019-02-08T20:14:08.899Z,0.60
2019-02-08T20:16:42.354Z,0.40
2019-02-08T20:19:18.629Z,0.30
2019-02-08T20:22:09.237Z,0.20
2019-02-08T20:24:35.165Z,0.20
2019-02-08T20:27:05.924Z,0.30
2019-02-08T20:29:38.586Z,0.30
2019-02-08T20:35:11.477Z,0.00
2019-02-08T20:40:42.038Z,-0.30
2019-02-08T20:43:13.975Z,-0.40
2019-02-08T20:45:58.035Z,-0.50
2019-02-08T20:48:44.855Z,-0.50
2019-02-08T20:51:21.120Z,-0.50
2019-02-08T20:53:56.129Z,-0.60
2019-02-08T20:56:29.396Z,-0.60
2019-02-08T20:59:24.425Z,-0.70
2019-02-08T21:01:56.505Z,-0.70
2019-02-08T21:04:44.575Z,-0.60
2019-02-08T21:07:35.877Z,-0.50
2019-02-08T21:10:11.761Z,-0.50
2019-02-08T21:12:48.185Z,-0.50
2019-02-08T21:15:44.326Z,-0.50
2019-02-08T21:18:03.638Z,-0.30
2019-02-08T21:20:59.570Z,-0.20
2019-02-08T21:23:33.789Z,-0.20
2019-02-08T21:25:52.299Z,-0.10
2019-02-08T21:28:37.668Z,-0.20
2019-02-08T21:34:26.070Z,-0.30
2019-02-08T21:37:09.402Z,-0.30
2019-02-08T21:39:59.421Z,-0.30
2019-02-08T21:45:31.773Z,-0.20
2019-02-08T21:51:09.871Z,-0.30
2019-02-08T21:53:41.226Z,-0.30
2019-02-08T21:56:13.641Z,-0.30
2019-02-08T21:58:45.536Z,-0.40
2019-02-08T22:01:16.455Z,-0.50
2019-02-08T22:04:01.250Z,-0.60
2019-02-08T22:06:30.556Z,-0.70
2019-02-08T22:09:04.502Z,-0.80
2019-02-08T22:11:53.438Z,-0.80
2019-02-08T22:14:32.392Z,-0.80
2019-02-08T22:17:11.641Z,-0.80
2019-02-08T22:19:51.703Z,-0.90
2019-02-08T22:28:32.896Z,-1.20
2019-02-08T22:31:02.415Z,-1.30
2019-02-08T22:33:41.325Z,-1.40
2019-02-08T22:36:21.258Z,-1.30
2019-02-08T22:38:58.959Z,-1.40
2019-02-08T22:41:35.644Z,-1.40
2019-02-08T22:44:17.967Z,-1.50
2019-02-08T22:47:08.036Z,-1.60
2019-02-08T22:50:09.668Z,-1.70
2019-02-08T22:52:33.278Z,-1.70
2019-02-08T22:57:57.477Z,-1.50
2019-02-08T23:00:59.834Z,-1.50
2019-02-08T23:03:50.136Z,-1.50
2019-02-08T23:06:44.456Z,-1.50
2019-02-08T23:09:28.340Z,-1.40
2019-02-08T23:12:01.458Z,-1.30
2019-02-08T23:14:39.743Z,-1.10
2019-02-08T23:17:26.274Z,-1.00
2019-02-08T23:20:05.109Z,-1.00
2019-02-08T23:22:50.448Z,-1.00
2019-02-08T23:25:45.487Z,-0.90
2019-02-08T23:28:20.801Z,-0.90
2019-02-08T23:30:56.968Z,-1.00
2019-02-08T23:34:26.619Z,-1.00
2019-02-08T23:36:30.421Z,-1.10
2019-02-08T23:38:53.204Z,-1.10
2019-02-08T23:41:39.538Z,-1.10
2019-02-08T23:44:21.910Z,-1.10
2019-02-08T23:46:55.122Z,-1.10
2019-02-08T23:49:36.122Z,-1.00
2019-02-08T23:52:07.540Z,-1.00
2019-02-08T23:55:06.480Z,-1.00
